Terminal Aerodrome Forecast
Issued by NWS Sioux Falls, SD

Home | Current Version | Previous Version | Graphics & Text | Print | Product List | Glossary On
Versions: 1 2 3 4 5 6 7 8 9 10 11 12 13 14 15 16 17
000
FTUS43 KFSD 281726
TAFFSD
TAF
KFSD 281726Z 2818/2918 10008KT P6SM SCT120 BKN200
     FM290300 13004KT 3SM BR SCT005 BKN200
     FM291200 19005KT P6SM FEW005
     FM291500 24008KT P6SM SKC=

USA.gov is the U.S. government's official web portal to all federal, state and local government web resources and services.